Alexander, North Dakota
Current Conditions -  °F | °C
As of 8:52 AM on Thursday 23 Oct 2014 (Local Time) from KISN Reporting Station
Clear Clear  
Wind Chill: 34°   Ceiling: Unl
Heat Index: 34°   Visibility: 10mi
Dew Point: 31°   Wind: 3mph
Humidity: 89%   Direction: 210°SSW
Pressure: 29.84"   Gusts: NA
Location:  47.84°N, 103.64°W
Report Text: KISN 231352Z AUTO 21003KT 10SM CLR 01/M01 A2984 RMK AO2 SLP119 T00111006
Loading
Personal Weather Stations






























Interactive Weather Map New forecast layout! Learn more

10-Day Weather Forecast

Advertisements
Track Severe Weather on mobile